createdAt,value
2017-07-24T13:27:44.486Z,55
2017-07-24T13:31:09.696Z,55
2017-07-24T13:33:14.895Z,50
2017-07-24T13:35:17.096Z,45
2017-07-24T13:37:18.855Z,45
2017-07-24T13:39:20.714Z,45
2017-07-24T13:41:22.581Z,45
2017-07-24T13:43:24.620Z,45
2017-07-24T13:46:07.658Z,45
2017-07-24T13:48:56.463Z,45
2017-07-24T13:50:58.109Z,45
2017-07-24T13:53:00.123Z,40
2017-07-24T13:55:02.888Z,40
2017-07-24T13:57:04.684Z,40
2017-07-24T13:59:06.576Z,40
2017-07-24T14:01:49.973Z,40
2017-07-24T14:04:33.825Z,35
2017-07-24T14:06:36.550Z,35
2017-07-24T14:08:39.449Z,35
2017-07-24T14:10:41.769Z,35
2017-07-24T14:12:43.600Z,35
2017-07-24T14:14:45.505Z,35
2017-07-24T14:16:47.370Z,30
2017-07-24T14:18:49.345Z,35
2017-07-24T14:20:51.549Z,35
2017-07-24T14:22:53.691Z,35
2017-07-24T14:24:55.549Z,35
2017-07-24T14:26:57.440Z,35
2017-07-24T14:28:58.950Z,40
2017-07-24T14:31:00.410Z,40
2017-07-24T14:33:02.021Z,40
2017-07-24T14:35:45.027Z,40
2017-07-24T14:37:47.052Z,40
2017-07-24T14:39:48.588Z,40
2017-07-24T14:41:50.097Z,35
2017-07-24T14:43:51.847Z,35
2017-07-24T14:45:53.615Z,35
2017-07-24T14:47:55.094Z,40
2017-07-24T14:49:56.652Z,40
2017-07-24T14:51:58.098Z,35
2017-07-24T14:53:59.568Z,30
2017-07-24T14:56:01.108Z,25
2017-07-24T14:58:02.557Z,20
2017-07-24T15:00:04.149Z,20
2017-07-24T15:02:05.592Z,20
2017-07-24T15:04:07.056Z,20
2017-07-24T15:06:08.527Z,20
2017-07-24T15:08:09.960Z,25
2017-07-24T15:10:11.397Z,30
2017-07-24T15:12:12.822Z,35
2017-07-24T15:14:14.254Z,35
2017-07-24T15:16:15.688Z,35
2017-07-24T15:18:17.113Z,35
2017-07-24T15:20:18.693Z,35
2017-07-24T15:22:20.234Z,35
2017-07-24T15:24:21.674Z,40
2017-07-24T15:26:23.137Z,40
2017-07-24T15:28:24.665Z,40
2017-07-24T15:30:26.238Z,40
2017-07-24T15:32:27.697Z,50
2017-07-24T15:34:29.184Z,50
2017-07-24T15:36:30.670Z,45
2017-07-24T15:38:32.439Z,45
2017-07-24T15:40:33.924Z,50
2017-07-24T15:42:35.436Z,50
2017-07-24T15:44:37.156Z,45
2017-07-24T15:46:38.659Z,55
2017-07-24T15:48:40.188Z,65
2017-07-24T15:50:41.735Z,75
2017-07-24T15:52:43.268Z,75
2017-07-24T15:54:44.819Z,80
2017-07-24T15:56:46.287Z,70
2017-07-24T15:58:47.860Z,80
2017-07-24T16:00:49.349Z,70
2017-07-24T16:02:50.973Z,60
2017-07-24T16:04:52.507Z,45
2017-07-24T16:06:54.044Z,45
2017-07-24T16:08:55.611Z,45
2017-07-24T16:10:57.158Z,35
2017-07-24T16:12:58.645Z,30
2017-07-24T16:15:00.147Z,30
2017-07-24T16:17:01.665Z,30
2017-07-24T16:19:03.114Z,30
2017-07-24T16:21:04.558Z,30
2017-07-24T16:23:46.117Z,35
2017-07-24T16:25:47.548Z,35
2017-07-24T16:27:48.982Z,30
2017-07-24T16:29:50.682Z,20
2017-07-24T16:31:52.149Z,20
2017-07-24T16:33:53.626Z,15
2017-07-24T16:35:55.219Z,10
2017-07-24T16:37:56.747Z,10
2017-07-24T16:39:58.290Z,10
2017-07-24T16:42:00.007Z,15
2017-07-24T16:44:01.924Z,15
2017-07-24T16:46:03.830Z,15
2017-07-24T16:48:46.768Z,20
2017-07-24T16:50:48.478Z,20
2017-07-24T16:52:50.355Z,20
2017-07-24T16:54:51.796Z,20
2017-07-24T16:56:53.242Z,20
2017-07-24T16:58:54.721Z,20
2017-07-24T17:00:56.168Z,25
2017-07-24T17:02:57.607Z,20
2017-07-24T17:04:59.048Z,20
2017-07-24T17:07:00.512Z,20
2017-07-24T17:09:02.059Z,20
2017-07-24T17:11:03.651Z,20
2017-07-24T17:13:05.127Z,20
2017-07-24T17:15:06.568Z,20
2017-07-24T17:17:07.996Z,20
2017-07-24T17:19:09.442Z,25
2017-07-24T17:21:10.906Z,20
2017-07-24T17:23:12.335Z,15
2017-07-24T17:25:13.789Z,15
2017-07-24T17:27:15.223Z,10
2017-07-24T17:29:16.832Z,10
2017-07-24T17:31:18.268Z,10
2017-07-24T17:33:19.701Z,10
2017-07-24T17:35:21.132Z,10
2017-07-24T17:37:22.566Z,10
2017-07-24T17:39:24.001Z,10
2017-07-24T17:41:25.426Z,10
2017-07-24T17:43:26.860Z,10
2017-07-24T17:45:28.290Z,10
2017-07-24T17:47:29.716Z,10
2017-07-24T17:49:31.150Z,10
2017-07-24T17:51:32.577Z,10
2017-07-24T17:53:34.009Z,10
2017-07-24T17:55:35.444Z,10
2017-07-24T17:57:36.873Z,10
2017-07-24T17:59:38.328Z,10
2017-07-24T18:01:39.828Z,10
2017-07-24T18:03:41.275Z,10
2017-07-24T18:05:42.753Z,10
2017-07-24T18:07:44.270Z,10
2017-07-24T18:09:45.747Z,10
2017-07-24T18:11:47.246Z,5
2017-07-24T18:13:48.695Z,5
2017-07-24T18:15:50.182Z,5
2017-07-24T18:17:51.664Z,5
2017-07-24T18:19:53.101Z,5
2017-07-24T18:21:54.531Z,5
2017-07-24T18:23:56.153Z,5
2017-07-24T18:25:57.747Z,5
2017-07-24T18:27:59.311Z,5
2017-07-24T18:30:01.142Z,5
2017-07-24T18:32:02.663Z,5
2017-07-24T18:34:04.097Z,5
2017-07-24T18:36:05.520Z,5
2017-07-24T18:38:06.992Z,5
2017-07-24T18:40:08.421Z,5
2017-07-24T18:42:09.943Z,5
2017-07-24T18:44:11.408Z,5
2017-07-24T18:46:12.851Z,5
2017-07-24T18:48:14.357Z,5
2017-07-24T18:50:15.784Z,5
2017-07-24T18:52:17.346Z,5
2017-07-24T18:54:18.802Z,5
2017-07-24T18:56:20.248Z,5
2017-07-24T18:58:21.755Z,5
2017-07-24T19:00:23.272Z,5
2017-07-24T19:02:25.235Z,0
2017-07-24T19:04:26.719Z,0
2017-07-24T19:06:28.219Z,0
2017-07-24T19:08:29.732Z,0
2017-07-24T19:10:31.261Z,0
2017-07-24T19:12:32.764Z,0
2017-07-24T19:14:34.272Z,0
2017-07-24T19:16:35.855Z,0
2017-07-24T19:18:37.320Z,0
2017-07-24T19:20:38.876Z,0
2017-07-24T19:22:40.520Z,0
2017-07-24T19:24:42.022Z,0
2017-07-24T19:26:43.505Z,0
2017-07-24T19:28:45.061Z,0
2017-07-24T19:30:46.587Z,0
2017-07-24T19:32:48.071Z,0
2017-07-24T19:34:49.544Z,0
2017-07-24T19:36:51.275Z,0
2017-07-24T19:38:52.717Z,0
2017-07-24T19:40:54.253Z,0
2017-07-24T19:42:55.727Z,0
2017-07-24T19:44:57.292Z,0
2017-07-24T19:46:58.829Z,0
2017-07-24T19:49:00.316Z,0
2017-07-24T19:51:01.851Z,0
2017-07-24T19:53:03.420Z,0
2017-07-24T19:55:04.975Z,0
2017-07-24T19:57:06.468Z,0
2017-07-24T19:59:07.968Z,0
2017-07-24T20:01:09.542Z,0
2017-07-24T20:03:11.067Z,0
2017-07-24T20:05:12.550Z,0
2017-07-24T20:07:14.067Z,0
2017-07-24T20:09:15.549Z,0
2017-07-24T20:11:17.005Z,0
2017-07-24T20:13:18.448Z,0
2017-07-24T20:15:19.973Z,0
2017-07-24T20:17:21.481Z,0
2017-07-24T20:19:23.359Z,0
2017-07-24T20:21:24.848Z,0
2017-07-24T20:23:26.424Z,0
2017-07-24T20:25:27.863Z,0
2017-07-24T20:27:29.351Z,0
2017-07-24T20:29:30.817Z,0
2017-07-24T20:31:32.254Z,0
2017-07-24T20:33:33.765Z,0
2017-07-24T20:35:35.296Z,0
2017-07-24T20:37:36.746Z,0
2017-07-24T20:39:38.199Z,0
2017-07-24T20:41:39.724Z,0
2017-07-24T20:43:41.291Z,0
2017-07-24T20:45:42.805Z,0
2017-07-24T20:47:44.371Z,0
2017-07-24T20:49:46.365Z,0
2017-07-24T20:51:47.856Z,0
2017-07-24T20:53:49.722Z,0
2017-07-24T20:55:51.244Z,0
2017-07-24T20:57:52.800Z,0
2017-07-24T20:59:54.358Z,0
2017-07-24T21:01:55.872Z,0
2017-07-24T21:03:57.360Z,0
2017-07-24T21:05:58.860Z,0
2017-07-24T21:08:00.354Z,0
2017-07-24T21:10:01.893Z,0
2017-07-24T21:12:03.407Z,0
2017-07-24T21:14:04.911Z,0
2017-07-24T21:16:06.522Z,0
2017-07-24T21:18:07.976Z,0
2017-07-24T21:20:09.454Z,0
2017-07-24T21:22:51.861Z,0
2017-07-24T21:24:53.302Z,0
2017-07-24T21:26:54.713Z,0
2017-07-24T21:28:56.138Z,0
2017-07-24T21:30:57.564Z,0
2017-07-24T21:32:58.989Z,0
2017-07-24T21:35:00.416Z,0
2017-07-24T21:37:01.851Z,0
2017-07-24T21:39:03.307Z,0
2017-07-24T21:41:04.730Z,0
2017-07-24T21:43:06.156Z,0
2017-07-24T21:45:07.577Z,0
2017-07-24T21:47:09.002Z,0
2017-07-24T21:49:10.435Z,0
2017-07-24T21:51:11.851Z,0
2017-07-24T21:53:13.279Z,0
2017-07-24T21:55:55.698Z,0
2017-07-24T21:57:57.125Z,0
2017-07-24T21:59:58.550Z,0
2017-07-24T22:01:59.982Z,0
2017-07-24T22:04:01.445Z,0
2017-07-24T22:06:02.871Z,0
2017-07-24T22:08:04.314Z,0
2017-07-24T22:10:05.719Z,0
2017-07-24T22:12:07.151Z,0
2017-07-24T22:14:08.576Z,0
2017-07-24T22:16:10.002Z,0
2017-07-24T22:18:11.453Z,0
2017-07-24T22:20:12.879Z,0
2017-07-24T22:22:14.337Z,0
2017-07-24T22:24:15.739Z,0
2017-07-24T22:26:17.188Z,0
2017-07-24T22:28:18.617Z,0
2017-07-24T22:30:20.278Z,0
2017-07-24T22:32:21.716Z,0
2017-07-24T22:34:23.296Z,0
2017-07-24T22:36:24.893Z,0
2017-07-24T22:38:26.354Z,0
2017-07-24T22:40:27.816Z,0
2017-07-24T22:43:10.250Z,0
2017-07-24T22:45:11.701Z,0
2017-07-24T22:47:13.102Z,0
2017-07-24T22:49:14.534Z,0
2017-07-24T22:51:15.959Z,0
2017-07-24T22:53:17.388Z,0
2017-07-24T22:55:18.819Z,0
2017-07-24T22:57:20.241Z,0
2017-07-24T22:59:21.677Z,0
2017-07-24T23:01:23.122Z,0
2017-07-24T23:03:24.528Z,0
2017-07-24T23:05:25.961Z,0
2017-07-24T23:07:27.381Z,0
2017-07-24T23:09:28.808Z,0
2017-07-24T23:11:30.295Z,0
2017-07-24T23:14:12.725Z,0
2017-07-24T23:16:14.152Z,0
2017-07-24T23:18:15.579Z,0
2017-07-24T23:20:17.003Z,0
2017-07-24T23:22:18.431Z,0
2017-07-24T23:24:19.860Z,0
2017-07-24T23:26:21.290Z,0
2017-07-24T23:28:22.744Z,0
2017-07-24T23:30:24.141Z,0
2017-07-24T23:32:25.568Z,0
2017-07-24T23:34:27.001Z,0
2017-07-24T23:37:09.431Z,0
2017-07-24T23:39:10.865Z,0
2017-07-24T23:41:12.272Z,0
2017-07-24T23:43:13.727Z,0
2017-07-24T23:45:15.156Z,0
2017-07-24T23:47:16.581Z,0
2017-07-24T23:49:18.027Z,0
2017-07-24T23:51:19.457Z,0
2017-07-24T23:53:20.899Z,0
2017-07-24T23:55:22.397Z,0
2017-07-24T23:57:24.006Z,0
2017-07-24T23:59:25.506Z,0
